sensor_id;sensor_type;location;lat;lon;timestamp;temperature;humidity
2851;DHT22;1433;49.976;8.342;2023-02-03T00:01:19;8.20;99.90
2851;DHT22;1433;49.976;8.342;2023-02-03T00:03:45;8.20;99.90
2851;DHT22;1433;49.976;8.342;2023-02-03T00:06:11;8.20;99.90
2851;DHT22;1433;49.976;8.342;2023-02-03T00:08:37;8.20;99.90
2851;DHT22;1433;49.976;8.342;2023-02-03T00:11:04;8.20;99.90
2851;DHT22;1433;49.976;8.342;2023-02-03T00:13:30;8.20;99.90
2851;DHT22;1433;49.976;8.342;2023-02-03T00:15:57;8.10;99.90
2851;DHT22;1433;49.976;8.342;2023-02-03T00:18:23;8.00;99.90
2851;DHT22;1433;49.976;8.342;2023-02-03T00:20:49;7.90;99.90
2851;DHT22;1433;49.976;8.342;2023-02-03T00:23:15;7.90;99.90
2851;DHT22;1433;49.976;8.342;2023-02-03T00:25:42;7.80;99.90
2851;DHT22;1433;49.976;8.342;2023-02-03T00:28:08;7.70;99.90
2851;DHT22;1433;49.976;8.342;2023-02-03T00:30:35;7.70;99.90
2851;DHT22;1433;49.976;8.342;2023-02-03T00:33:03;7.70;99.90
2851;DHT22;1433;49.976;8.342;2023-02-03T00:35:29;7.70;99.90
2851;DHT22;1433;49.976;8.342;2023-02-03T00:37:57;7.70;99.90
2851;DHT22;1433;49.976;8.342;2023-02-03T00:40:25;7.70;99.90
2851;DHT22;1433;49.976;8.342;2023-02-03T00:42:51;7.70;99.90
2851;DHT22;1433;49.976;8.342;2023-02-03T00:45:18;7.70;99.90
2851;DHT22;1433;49.976;8.342;2023-02-03T00:47:44;7.70;99.90
2851;DHT22;1433;49.976;8.342;2023-02-03T00:50:10;7.70;99.90
2851;DHT22;1433;49.976;8.342;2023-02-03T00:52:37;7.70;99.90
2851;DHT22;1433;49.976;8.342;2023-02-03T00:55:04;7.60;99.90
2851;DHT22;1433;49.976;8.342;2023-02-03T00:57:30;7.60;99.90
2851;DHT22;1433;49.976;8.342;2023-02-03T00:59:57;7.60;99.90
2851;DHT22;1433;49.976;8.342;2023-02-03T01:02:23;7.70;99.90
2851;DHT22;1433;49.976;8.342;2023-02-03T01:04:51;7.70;99.90
2851;DHT22;1433;49.976;8.342;2023-02-03T01:07:18;7.80;99.90
2851;DHT22;1433;49.976;8.342;2023-02-03T01:09:44;7.70;99.90
2851;DHT22;1433;49.976;8.342;2023-02-03T01:12:10;7.70;99.90
2851;DHT22;1433;49.976;8.342;2023-02-03T01:14:36;7.70;99.90
2851;DHT22;1433;49.976;8.342;2023-02-03T01:17:03;7.70;99.90
2851;DHT22;1433;49.976;8.342;2023-02-03T01:19:29;7.70;99.90
2851;DHT22;1433;49.976;8.342;2023-02-03T01:21:56;7.60;99.90
2851;DHT22;1433;49.976;8.342;2023-02-03T01:24:22;7.60;99.90
2851;DHT22;1433;49.976;8.342;2023-02-03T01:26:48;7.50;99.90
2851;DHT22;1433;49.976;8.342;2023-02-03T01:29:14;7.60;99.90
2851;DHT22;1433;49.976;8.342;2023-02-03T01:31:40;7.50;99.90
2851;DHT22;1433;49.976;8.342;2023-02-03T01:34:13;7.50;99.90
2851;DHT22;1433;49.976;8.342;2023-02-03T01:36:43;7.60;99.90
2851;DHT22;1433;49.976;8.342;2023-02-03T01:39:11;7.60;99.90
2851;DHT22;1433;49.976;8.342;2023-02-03T01:41:38;7.70;99.90
2851;DHT22;1433;49.976;8.342;2023-02-03T01:47:28;7.80;99.90
2851;DHT22;1433;49.976;8.342;2023-02-03T01:50:09;7.90;99.90
2851;DHT22;1433;49.976;8.342;2023-02-03T01:52:53;7.90;99.90
2851;DHT22;1433;49.976;8.342;2023-02-03T01:55:22;7.90;99.90
2851;DHT22;1433;49.976;8.342;2023-02-03T01:57:56;8.00;99.90
2851;DHT22;1433;49.976;8.342;2023-02-03T02:00:25;8.00;99.90
2851;DHT22;1433;49.976;8.342;2023-02-03T02:02:53;8.00;99.90
2851;DHT22;1433;49.976;8.342;2023-02-03T02:08:11;8.00;99.90
2851;DHT22;1433;49.976;8.342;2023-02-03T02:10:39;8.00;99.90
2851;DHT22;1433;49.976;8.342;2023-02-03T02:13:05;8.00;99.90
2851;DHT22;1433;49.976;8.342;2023-02-03T02:15:43;8.00;99.90
2851;DHT22;1433;49.976;8.342;2023-02-03T02:27:49;8.10;99.90
2851;DHT22;1433;49.976;8.342;2023-02-03T02:30:35;8.10;99.90
2851;DHT22;1433;49.976;8.342;2023-02-03T02:36:19;8.00;99.90
2851;DHT22;1433;49.976;8.342;2023-02-03T02:39:11;8.00;99.90
2851;DHT22;1433;49.976;8.342;2023-02-03T02:44:24;8.00;99.90
2851;DHT22;1433;49.976;8.342;2023-02-03T02:46:59;8.00;99.90
2851;DHT22;1433;49.976;8.342;2023-02-03T02:49:47;8.00;99.90
2851;DHT22;1433;49.976;8.342;2023-02-03T02:52:36;8.00;99.90
2851;DHT22;1433;49.976;8.342;2023-02-03T02:55:08;7.90;99.90
2851;DHT22;1433;49.976;8.342;2023-02-03T02:57:37;7.90;99.90
2851;DHT22;1433;49.976;8.342;2023-02-03T03:00:05;7.90;99.90
2851;DHT22;1433;49.976;8.342;2023-02-03T03:02:35;7.70;99.90
2851;DHT22;1433;49.976;8.342;2023-02-03T03:05:04;7.70;99.90
2851;DHT22;1433;49.976;8.342;2023-02-03T03:07:35;7.70;99.90
2851;DHT22;1433;49.976;8.342;2023-02-03T03:10:13;7.60;99.90
2851;DHT22;1433;49.976;8.342;2023-02-03T03:12:45;7.70;99.90
2851;DHT22;1433;49.976;8.342;2023-02-03T03:15:16;7.70;99.90
2851;DHT22;1433;49.976;8.342;2023-02-03T03:17:48;7.80;99.90
2851;DHT22;1433;49.976;8.342;2023-02-03T03:20:20;7.80;99.90
2851;DHT22;1433;49.976;8.342;2023-02-03T03:22:56;7.80;99.90
2851;DHT22;1433;49.976;8.342;2023-02-03T03:25:43;7.80;99.90
2851;DHT22;1433;49.976;8.342;2023-02-03T03:28:19;7.80;99.90
2851;DHT22;1433;49.976;8.342;2023-02-03T03:30:49;7.80;99.90
2851;DHT22;1433;49.976;8.342;2023-02-03T03:33:15;7.90;99.90
2851;DHT22;1433;49.976;8.342;2023-02-03T03:36:00;7.90;99.90
2851;DHT22;1433;49.976;8.342;2023-02-03T03:39:04;7.90;99.90
2851;DHT22;1433;49.976;8.342;2023-02-03T03:44:10;7.90;99.90
2851;DHT22;1433;49.976;8.342;2023-02-03T03:46:48;7.90;99.90
2851;DHT22;1433;49.976;8.342;2023-02-03T03:49:15;7.90;99.90
2851;DHT22;1433;49.976;8.342;2023-02-03T03:51:54;7.90;99.90
2851;DHT22;1433;49.976;8.342;2023-02-03T03:54:24;7.90;99.90
2851;DHT22;1433;49.976;8.342;2023-02-03T03:57:18;7.90;99.90
2851;DHT22;1433;49.976;8.342;2023-02-03T03:59:50;7.90;99.90
2851;DHT22;1433;49.976;8.342;2023-02-03T04:02:17;7.90;99.90
2851;DHT22;1433;49.976;8.342;2023-02-03T04:04:47;7.90;99.90
2851;DHT22;1433;49.976;8.342;2023-02-03T04:07:14;7.90;99.90
2851;DHT22;1433;49.976;8.342;2023-02-03T04:09:41;7.90;99.90
2851;DHT22;1433;49.976;8.342;2023-02-03T04:12:23;7.90;99.90
2851;DHT22;1433;49.976;8.342;2023-02-03T04:14:49;7.90;99.90
2851;DHT22;1433;49.976;8.342;2023-02-03T04:17:15;7.90;99.90
2851;DHT22;1433;49.976;8.342;2023-02-03T04:19:44;7.90;99.90
2851;DHT22;1433;49.976;8.342;2023-02-03T04:22:11;7.90;99.90
2851;DHT22;1433;49.976;8.342;2023-02-03T04:24:37;7.90;99.90
2851;DHT22;1433;49.976;8.342;2023-02-03T04:27:03;8.00;99.90
2851;DHT22;1433;49.976;8.342;2023-02-03T04:29:29;8.00;99.90
2851;DHT22;1433;49.976;8.342;2023-02-03T04:31:56;7.90;99.90
2851;DHT22;1433;49.976;8.342;2023-02-03T04:34:22;7.90;99.90
2851;DHT22;1433;49.976;8.342;2023-02-03T04:36:48;8.00;99.90
2851;DHT22;1433;49.976;8.342;2023-02-03T04:39:17;8.00;99.90
2851;DHT22;1433;49.976;8.342;2023-02-03T04:41:43;8.00;99.90
2851;DHT22;1433;49.976;8.342;2023-02-03T04:44:09;8.00;99.90
2851;DHT22;1433;49.976;8.342;2023-02-03T04:46:35;8.00;99.90
2851;DHT22;1433;49.976;8.342;2023-02-03T04:49:02;7.90;99.90
2851;DHT22;1433;49.976;8.342;2023-02-03T04:51:28;7.80;99.90
2851;DHT22;1433;49.976;8.342;2023-02-03T04:53:54;7.90;99.90
2851;DHT22;1433;49.976;8.342;2023-02-03T04:56:20;7.90;99.90
2851;DHT22;1433;49.976;8.342;2023-02-03T04:58:46;7.80;99.90
2851;DHT22;1433;49.976;8.342;2023-02-03T05:01:14;7.80;99.90
2851;DHT22;1433;49.976;8.342;2023-02-03T05:03:40;7.90;99.90
2851;DHT22;1433;49.976;8.342;2023-02-03T05:06:06;7.90;99.90
2851;DHT22;1433;49.976;8.342;2023-02-03T05:08:32;7.90;99.90
2851;DHT22;1433;49.976;8.342;2023-02-03T05:10:59;8.00;99.90
2851;DHT22;1433;49.976;8.342;2023-02-03T05:13:25;8.00;99.90
2851;DHT22;1433;49.976;8.342;2023-02-03T05:15:51;8.00;99.90
2851;DHT22;1433;49.976;8.342;2023-02-03T05:18:17;8.00;99.90
2851;DHT22;1433;49.976;8.342;2023-02-03T05:20:43;8.00;99.90
2851;DHT22;1433;49.976;8.342;2023-02-03T05:23:10;7.90;99.90
2851;DHT22;1433;49.976;8.342;2023-02-03T05:25:36;8.00;99.90
2851;DHT22;1433;49.976;8.342;2023-02-03T05:28:02;8.00;99.90
2851;DHT22;1433;49.976;8.342;2023-02-03T05:30:29;7.90;99.90
2851;DHT22;1433;49.976;8.342;2023-02-03T05:32:55;7.90;99.90
2851;DHT22;1433;49.976;8.342;2023-02-03T05:35:21;7.90;99.90
2851;DHT22;1433;49.976;8.342;2023-02-03T05:37:48;7.90;99.90
2851;DHT22;1433;49.976;8.342;2023-02-03T05:40:14;7.90;99.90
2851;DHT22;1433;49.976;8.342;2023-02-03T05:42:59;7.90;99.90
2851;DHT22;1433;49.976;8.342;2023-02-03T05:45:25;7.90;99.90
2851;DHT22;1433;49.976;8.342;2023-02-03T05:47:52;7.90;99.90
2851;DHT22;1433;49.976;8.342;2023-02-03T05:50:18;7.90;99.90
2851;DHT22;1433;49.976;8.342;2023-02-03T05:52:45;7.90;99.90
2851;DHT22;1433;49.976;8.342;2023-02-03T05:55:11;7.90;99.90
2851;DHT22;1433;49.976;8.342;2023-02-03T05:57:37;8.00;99.90
2851;DHT22;1433;49.976;8.342;2023-02-03T06:00:04;8.00;99.90
2851;DHT22;1433;49.976;8.342;2023-02-03T06:02:34;8.00;99.90
2851;DHT22;1433;49.976;8.342;2023-02-03T06:05:00;8.10;99.90
2851;DHT22;1433;49.976;8.342;2023-02-03T06:07:26;8.10;99.90
2851;DHT22;1433;49.976;8.342;2023-02-03T06:09:52;8.10;99.90
2851;DHT22;1433;49.976;8.342;2023-02-03T06:12:18;8.10;99.90
2851;DHT22;1433;49.976;8.342;2023-02-03T06:14:44;8.20;99.90
2851;DHT22;1433;49.976;8.342;2023-02-03T06:17:11;8.00;99.90
2851;DHT22;1433;49.976;8.342;2023-02-03T06:19:37;8.00;99.90
2851;DHT22;1433;49.976;8.342;2023-02-03T06:22:03;8.00;99.90
2851;DHT22;1433;49.976;8.342;2023-02-03T06:24:30;8.00;99.90
2851;DHT22;1433;49.976;8.342;2023-02-03T06:26:56;8.00;99.90
2851;DHT22;1433;49.976;8.342;2023-02-03T06:29:22;7.90;99.90
2851;DHT22;1433;49.976;8.342;2023-02-03T06:31:48;7.90;99.90
2851;DHT22;1433;49.976;8.342;2023-02-03T06:34:14;7.90;99.90
2851;DHT22;1433;49.976;8.342;2023-02-03T06:36:41;7.90;99.90
2851;DHT22;1433;49.976;8.342;2023-02-03T06:39:07;8.00;99.90
2851;DHT22;1433;49.976;8.342;2023-02-03T06:41:33;8.00;99.90
2851;DHT22;1433;49.976;8.342;2023-02-03T06:43:59;8.00;99.90
2851;DHT22;1433;49.976;8.342;2023-02-03T06:46:25;8.00;99.90
2851;DHT22;1433;49.976;8.342;2023-02-03T06:48:53;8.00;99.90
2851;DHT22;1433;49.976;8.342;2023-02-03T06:51:21;8.00;99.90
2851;DHT22;1433;49.976;8.342;2023-02-03T06:53:49;8.10;99.90
2851;DHT22;1433;49.976;8.342;2023-02-03T06:56:16;8.10;99.90
2851;DHT22;1433;49.976;8.342;2023-02-03T06:58:42;8.10;99.90
2851;DHT22;1433;49.976;8.342;2023-02-03T07:01:09;8.20;99.90
2851;DHT22;1433;49.976;8.342;2023-02-03T07:03:35;8.20;99.90
2851;DHT22;1433;49.976;8.342;2023-02-03T07:06:01;8.20;99.90
2851;DHT22;1433;49.976;8.342;2023-02-03T07:08:28;8.20;99.90
2851;DHT22;1433;49.976;8.342;2023-02-03T07:10:54;8.20;99.90
2851;DHT22;1433;49.976;8.342;2023-02-03T07:13:21;8.20;99.90
2851;DHT22;1433;49.976;8.342;2023-02-03T07:15:47;8.20;99.90
2851;DHT22;1433;49.976;8.342;2023-02-03T07:18:13;8.30;99.90
2851;DHT22;1433;49.976;8.342;2023-02-03T07:20:40;8.30;99.90
2851;DHT22;1433;49.976;8.342;2023-02-03T07:23:07;8.30;99.90
2851;DHT22;1433;49.976;8.342;2023-02-03T07:25:33;8.30;99.90
2851;DHT22;1433;49.976;8.342;2023-02-03T07:28:00;8.30;99.90
2851;DHT22;1433;49.976;8.342;2023-02-03T07:30:26;8.30;99.90
2851;DHT22;1433;49.976;8.342;2023-02-03T07:32:52;8.40;99.90
2851;DHT22;1433;49.976;8.342;2023-02-03T07:35:19;8.40;99.90
2851;DHT22;1433;49.976;8.342;2023-02-03T07:37:46;8.40;99.90
2851;DHT22;1433;49.976;8.342;2023-02-03T07:40:13;8.50;99.90
2851;DHT22;1433;49.976;8.342;2023-02-03T07:42:48;8.50;99.90
2851;DHT22;1433;49.976;8.342;2023-02-03T07:45:15;8.60;99.90
2851;DHT22;1433;49.976;8.342;2023-02-03T07:47:43;8.60;99.90
2851;DHT22;1433;49.976;8.342;2023-02-03T07:50:10;8.70;99.90
2851;DHT22;1433;49.976;8.342;2023-02-03T07:52:38;8.70;99.90
2851;DHT22;1433;49.976;8.342;2023-02-03T07:55:04;8.70;99.90
2851;DHT22;1433;49.976;8.342;2023-02-03T07:57:31;8.80;99.90
2851;DHT22;1433;49.976;8.342;2023-02-03T07:59:57;8.80;99.90
2851;DHT22;1433;49.976;8.342;2023-02-03T08:02:23;8.80;99.90
2851;DHT22;1433;49.976;8.342;2023-02-03T08:04:50;8.80;99.90
2851;DHT22;1433;49.976;8.342;2023-02-03T08:07:19;8.80;99.90
2851;DHT22;1433;49.976;8.342;2023-02-03T08:09:45;8.90;99.90
2851;DHT22;1433;49.976;8.342;2023-02-03T08:12:12;8.90;99.90
2851;DHT22;1433;49.976;8.342;2023-02-03T08:14:38;8.90;99.90
2851;DHT22;1433;49.976;8.342;2023-02-03T08:17:04;9.00;99.90
2851;DHT22;1433;49.976;8.342;2023-02-03T08:19:33;9.00;99.90
2851;DHT22;1433;49.976;8.342;2023-02-03T08:22:00;9.00;99.90
2851;DHT22;1433;49.976;8.342;2023-02-03T08:24:27;9.10;99.90
2851;DHT22;1433;49.976;8.342;2023-02-03T08:26:53;9.10;99.90
2851;DHT22;1433;49.976;8.342;2023-02-03T08:29:20;9.10;99.90
2851;DHT22;1433;49.976;8.342;2023-02-03T08:31:46;9.20;99.90
2851;DHT22;1433;49.976;8.342;2023-02-03T08:34:12;9.20;99.90
2851;DHT22;1433;49.976;8.342;2023-02-03T08:36:39;9.20;99.90
2851;DHT22;1433;49.976;8.342;2023-02-03T08:39:06;9.20;99.90
2851;DHT22;1433;49.976;8.342;2023-02-03T08:41:32;9.30;99.90
2851;DHT22;1433;49.976;8.342;2023-02-03T08:43:59;9.30;99.90
2851;DHT22;1433;49.976;8.342;2023-02-03T08:46:26;9.40;99.90
2851;DHT22;1433;49.976;8.342;2023-02-03T08:48:53;9.40;99.90
2851;DHT22;1433;49.976;8.342;2023-02-03T08:51:21;9.40;99.90
2851;DHT22;1433;49.976;8.342;2023-02-03T08:53:47;9.50;99.90
2851;DHT22;1433;49.976;8.342;2023-02-03T08:56:14;9.40;99.90
2851;DHT22;1433;49.976;8.342;2023-02-03T08:58:40;9.50;99.90
2851;DHT22;1433;49.976;8.342;2023-02-03T09:01:12;9.50;99.90
2851;DHT22;1433;49.976;8.342;2023-02-03T09:03:40;9.50;99.90
2851;DHT22;1433;49.976;8.342;2023-02-03T09:06:08;9.50;99.90
2851;DHT22;1433;49.976;8.342;2023-02-03T09:08:36;9.50;99.90
2851;DHT22;1433;49.976;8.342;2023-02-03T09:11:11;9.60;99.90
2851;DHT22;1433;49.976;8.342;2023-02-03T09:13:39;9.60;99.90
2851;DHT22;1433;49.976;8.342;2023-02-03T09:16:08;9.60;99.90
2851;DHT22;1433;49.976;8.342;2023-02-03T09:18:34;9.60;99.90
2851;DHT22;1433;49.976;8.342;2023-02-03T09:21:02;9.70;99.90
2851;DHT22;1433;49.976;8.342;2023-02-03T09:23:30;9.70;99.90
2851;DHT22;1433;49.976;8.342;2023-02-03T09:26:01;9.70;99.90
2851;DHT22;1433;49.976;8.342;2023-02-03T09:28:28;9.70;99.90
2851;DHT22;1433;49.976;8.342;2023-02-03T09:31:03;9.70;99.90
2851;DHT22;1433;49.976;8.342;2023-02-03T09:33:34;9.70;99.90
2851;DHT22;1433;49.976;8.342;2023-02-03T09:36:00;9.70;99.90
2851;DHT22;1433;49.976;8.342;2023-02-03T09:38:27;9.70;99.90
2851;DHT22;1433;49.976;8.342;2023-02-03T09:41:02;9.80;99.90
2851;DHT22;1433;49.976;8.342;2023-02-03T09:43:36;9.80;99.90
2851;DHT22;1433;49.976;8.342;2023-02-03T09:46:26;9.80;99.90
2851;DHT22;1433;49.976;8.342;2023-02-03T09:48:58;9.80;99.90
2851;DHT22;1433;49.976;8.342;2023-02-03T09:51:45;9.80;99.90
2851;DHT22;1433;49.976;8.342;2023-02-03T09:54:22;9.80;99.90
2851;DHT22;1433;49.976;8.342;2023-02-03T09:56:51;9.90;99.90
2851;DHT22;1433;49.976;8.342;2023-02-03T09:59:22;9.90;99.90
2851;DHT22;1433;49.976;8.342;2023-02-03T10:01:59;9.90;99.90
2851;DHT22;1433;49.976;8.342;2023-02-03T10:04:41;10.00;99.90
2851;DHT22;1433;49.976;8.342;2023-02-03T10:08:13;10.00;99.90
2851;DHT22;1433;49.976;8.342;2023-02-03T10:10:30;10.00;99.90
2851;DHT22;1433;49.976;8.342;2023-02-03T10:16:03;9.90;99.90
2851;DHT22;1433;49.976;8.342;2023-02-03T10:18:40;9.90;99.90
2851;DHT22;1433;49.976;8.342;2023-02-03T10:21:18;9.90;99.90
2851;DHT22;1433;49.976;8.342;2023-02-03T10:23:47;9.90;99.90
2851;DHT22;1433;49.976;8.342;2023-02-03T10:26:19;9.90;99.90
2851;DHT22;1433;49.976;8.342;2023-02-03T10:28:56;10.00;99.90
2851;DHT22;1433;49.976;8.342;2023-02-03T10:31:25;10.00;99.90
2851;DHT22;1433;49.976;8.342;2023-02-03T10:34:07;10.10;99.90
2851;DHT22;1433;49.976;8.342;2023-02-03T10:39:48;10.20;99.90
2851;DHT22;1433;49.976;8.342;2023-02-03T10:42:16;10.20;99.90
2851;DHT22;1433;49.976;8.342;2023-02-03T10:44:51;10.20;99.90
2851;DHT22;1433;49.976;8.342;2023-02-03T10:47:40;10.20;99.90
2851;DHT22;1433;49.976;8.342;2023-02-03T10:50:21;10.30;99.90
2851;DHT22;1433;49.976;8.342;2023-02-03T10:52:49;10.30;99.90
2851;DHT22;1433;49.976;8.342;2023-02-03T10:57:55;10.30;99.90
2851;DHT22;1433;49.976;8.342;2023-02-03T11:00:31;10.30;99.90
2851;DHT22;1433;49.976;8.342;2023-02-03T11:03:03;10.30;99.90
2851;DHT22;1433;49.976;8.342;2023-02-03T11:05:35;10.30;99.90
2851;DHT22;1433;49.976;8.342;2023-02-03T11:08:01;10.40;99.90
2851;DHT22;1433;49.976;8.342;2023-02-03T11:10:36;10.30;99.90
2851;DHT22;1433;49.976;8.342;2023-02-03T11:13:22;10.30;99.90
2851;DHT22;1433;49.976;8.342;2023-02-03T11:18:42;10.40;99.90
2851;DHT22;1433;49.976;8.342;2023-02-03T11:22:03;10.40;99.90
2851;DHT22;1433;49.976;8.342;2023-02-03T11:23:56;10.40;99.90
2851;DHT22;1433;49.976;8.342;2023-02-03T11:26:31;10.40;99.90
2851;DHT22;1433;49.976;8.342;2023-02-03T11:29:01;10.40;99.90
2851;DHT22;1433;49.976;8.342;2023-02-03T11:31:31;10.40;99.90
2851;DHT22;1433;49.976;8.342;2023-02-03T11:34:05;10.40;99.90
2851;DHT22;1433;49.976;8.342;2023-02-03T11:36:33;10.50;99.90
2851;DHT22;1433;49.976;8.342;2023-02-03T11:39:15;10.50;99.90
2851;DHT22;1433;49.976;8.342;2023-02-03T11:41:44;10.40;99.90
2851;DHT22;1433;49.976;8.342;2023-02-03T11:44:20;10.50;99.90
2851;DHT22;1433;49.976;8.342;2023-02-03T11:46:51;10.50;99.90
2851;DHT22;1433;49.976;8.342;2023-02-03T11:49:35;10.60;99.90
2851;DHT22;1433;49.976;8.342;2023-02-03T11:58:37;10.60;99.90
2851;DHT22;1433;49.976;8.342;2023-02-03T12:04:30;10.40;99.90
2851;DHT22;1433;49.976;8.342;2023-02-03T12:07:10;10.50;99.90
2851;DHT22;1433;49.976;8.342;2023-02-03T12:15:42;10.40;99.90
2851;DHT22;1433;49.976;8.342;2023-02-03T12:26:49;10.40;99.90
2851;DHT22;1433;49.976;8.342;2023-02-03T12:29:30;10.40;99.90
2851;DHT22;1433;49.976;8.342;2023-02-03T12:35:11;10.30;99.90
2851;DHT22;1433;49.976;8.342;2023-02-03T12:46:02;10.30;99.90
2851;DHT22;1433;49.976;8.342;2023-02-03T12:48:39;10.30;99.90
2851;DHT22;1433;49.976;8.342;2023-02-03T12:51:09;10.30;99.90
2851;DHT22;1433;49.976;8.342;2023-02-03T12:53:39;10.30;99.90
2851;DHT22;1433;49.976;8.342;2023-02-03T12:56:11;10.30;99.90
2851;DHT22;1433;49.976;8.342;2023-02-03T12:58:46;10.30;99.90
2851;DHT22;1433;49.976;8.342;2023-02-03T13:01:25;10.30;99.90
2851;DHT22;1433;49.976;8.342;2023-02-03T13:10:03;10.20;99.90
2851;DHT22;1433;49.976;8.342;2023-02-03T13:12:49;10.10;99.90
2851;DHT22;1433;49.976;8.342;2023-02-03T13:15:27;10.10;99.90
2851;DHT22;1433;49.976;8.342;2023-02-03T13:18:11;10.10;99.90
2851;DHT22;1433;49.976;8.342;2023-02-03T13:20:48;10.20;99.90
2851;DHT22;1433;49.976;8.342;2023-02-03T13:23:15;10.10;99.90
2851;DHT22;1433;49.976;8.342;2023-02-03T13:38:15;10.20;99.90
2851;DHT22;1433;49.976;8.342;2023-02-03T13:41:09;10.20;99.90
2851;DHT22;1433;49.976;8.342;2023-02-03T13:43:45;10.10;99.90
2851;DHT22;1433;49.976;8.342;2023-02-03T13:46:20;10.10;99.90
2851;DHT22;1433;49.976;8.342;2023-02-03T13:48:50;10.10;99.90
2851;DHT22;1433;49.976;8.342;2023-02-03T13:51:20;10.00;99.90
2851;DHT22;1433;49.976;8.342;2023-02-03T13:53:50;10.00;99.90
2851;DHT22;1433;49.976;8.342;2023-02-03T13:56:22;10.00;99.90
2851;DHT22;1433;49.976;8.342;2023-02-03T13:59:05;10.00;99.90
2851;DHT22;1433;49.976;8.342;2023-02-03T14:01:36;9.90;99.90
2851;DHT22;1433;49.976;8.342;2023-02-03T14:06:59;9.80;99.90
2851;DHT22;1433;49.976;8.342;2023-02-03T14:15:01;9.40;99.90
2851;DHT22;1433;49.976;8.342;2023-02-03T14:25:46;8.90;99.90
2851;DHT22;1433;49.976;8.342;2023-02-03T14:28:20;8.90;99.90
2851;DHT22;1433;49.976;8.342;2023-02-03T14:31:11;8.90;99.90
2851;DHT22;1433;49.976;8.342;2023-02-03T14:36:43;8.70;99.90
2851;DHT22;1433;49.976;8.342;2023-02-03T14:42:04;8.60;99.90
2851;DHT22;1433;49.976;8.342;2023-02-03T14:47:15;8.70;99.90
2851;DHT22;1433;49.976;8.342;2023-02-03T14:50:28;8.60;99.90
2851;DHT22;1433;49.976;8.342;2023-02-03T14:56:12;8.60;99.90
2851;DHT22;1433;49.976;8.342;2023-02-03T14:58:55;8.70;99.90
2851;DHT22;1433;49.976;8.342;2023-02-03T15:06:48;8.60;99.90
2851;DHT22;1433;49.976;8.342;2023-02-03T15:09:28;8.70;99.90
2851;DHT22;1433;49.976;8.342;2023-02-03T15:11:59;8.70;99.90
2851;DHT22;1433;49.976;8.342;2023-02-03T15:14:28;8.80;99.90
2851;DHT22;1433;49.976;8.342;2023-02-03T15:17:00;8.80;99.90
2851;DHT22;1433;49.976;8.342;2023-02-03T15:19:33;8.90;99.90
2851;DHT22;1433;49.976;8.342;2023-02-03T15:22:01;9.00;99.90
2851;DHT22;1433;49.976;8.342;2023-02-03T15:24:33;9.10;99.90
2851;DHT22;1433;49.976;8.342;2023-02-03T15:26:59;9.20;99.90
2851;DHT22;1433;49.976;8.342;2023-02-03T15:29:28;9.20;99.90
2851;DHT22;1433;49.976;8.342;2023-02-03T15:32:01;9.30;99.90
2851;DHT22;1433;49.976;8.342;2023-02-03T15:34:50;9.40;99.90
2851;DHT22;1433;49.976;8.342;2023-02-03T15:37:26;9.50;99.90
2851;DHT22;1433;49.976;8.342;2023-02-03T15:40:13;9.60;99.90
2851;DHT22;1433;49.976;8.342;2023-02-03T15:51:05;9.60;99.90
2851;DHT22;1433;49.976;8.342;2023-02-03T15:53:45;9.60;99.90
2851;DHT22;1433;49.976;8.342;2023-02-03T15:56:34;9.60;99.90
2851;DHT22;1433;49.976;8.342;2023-02-03T15:59:19;9.50;99.90
2851;DHT22;1433;49.976;8.342;2023-02-03T16:01:47;9.50;99.90
2851;DHT22;1433;49.976;8.342;2023-02-03T16:04:14;9.50;99.90
2851;DHT22;1433;49.976;8.342;2023-02-03T16:06:44;9.60;99.90
2851;DHT22;1433;49.976;8.342;2023-02-03T16:09:26;9.60;99.90
2851;DHT22;1433;49.976;8.342;2023-02-03T16:12:17;9.60;99.90
2851;DHT22;1433;49.976;8.342;2023-02-03T16:14:54;9.60;99.90
2851;DHT22;1433;49.976;8.342;2023-02-03T16:17:37;9.60;99.90
2851;DHT22;1433;49.976;8.342;2023-02-03T16:22:58;9.60;99.90
2851;DHT22;1433;49.976;8.342;2023-02-03T16:25:32;9.60;99.90
2851;DHT22;1433;49.976;8.342;2023-02-03T16:28:16;9.60;99.90
2851;DHT22;1433;49.976;8.342;2023-02-03T16:31:15;9.70;99.90
2851;DHT22;1433;49.976;8.342;2023-02-03T16:34:11;9.60;99.90
2851;DHT22;1433;49.976;8.342;2023-02-03T16:36:58;9.30;99.90
2851;DHT22;1433;49.976;8.342;2023-02-03T16:39:43;9.10;99.90
2851;DHT22;1433;49.976;8.342;2023-02-03T16:42:36;8.90;99.90
2851;DHT22;1433;49.976;8.342;2023-02-03T16:45:22;8.90;99.90
2851;DHT22;1433;49.976;8.342;2023-02-03T16:48:11;8.90;99.90
2851;DHT22;1433;49.976;8.342;2023-02-03T16:51:01;8.80;99.90
2851;DHT22;1433;49.976;8.342;2023-02-03T16:53:30;8.80;99.90
2851;DHT22;1433;49.976;8.342;2023-02-03T16:55:59;8.80;99.90
2851;DHT22;1433;49.976;8.342;2023-02-03T16:58:27;8.80;99.90
2851;DHT22;1433;49.976;8.342;2023-02-03T17:00:54;8.80;99.90
2851;DHT22;1433;49.976;8.342;2023-02-03T17:03:25;8.80;99.90
2851;DHT22;1433;49.976;8.342;2023-02-03T17:06:09;8.80;99.90
2851;DHT22;1433;49.976;8.342;2023-02-03T17:08:38;8.80;99.90
2851;DHT22;1433;49.976;8.342;2023-02-03T17:11:09;8.80;99.90
2851;DHT22;1433;49.976;8.342;2023-02-03T17:13:43;8.80;99.90
2851;DHT22;1433;49.976;8.342;2023-02-03T17:16:16;8.90;99.90
2851;DHT22;1433;49.976;8.342;2023-02-03T17:18:42;9.00;99.90
2851;DHT22;1433;49.976;8.342;2023-02-03T17:21:12;9.20;99.90
2851;DHT22;1433;49.976;8.342;2023-02-03T17:23:43;9.20;99.90
2851;DHT22;1433;49.976;8.342;2023-02-03T17:26:09;9.30;99.90
2851;DHT22;1433;49.976;8.342;2023-02-03T17:28:38;9.40;99.90
2851;DHT22;1433;49.976;8.342;2023-02-03T17:31:06;9.40;99.90
2851;DHT22;1433;49.976;8.342;2023-02-03T17:33:33;9.50;99.90
2851;DHT22;1433;49.976;8.342;2023-02-03T17:36:08;9.50;99.90
2851;DHT22;1433;49.976;8.342;2023-02-03T17:38:39;9.50;99.90
2851;DHT22;1433;49.976;8.342;2023-02-03T17:41:12;9.50;99.90
2851;DHT22;1433;49.976;8.342;2023-02-03T17:43:40;9.60;99.90
2851;DHT22;1433;49.976;8.342;2023-02-03T17:46:08;9.60;99.90
2851;DHT22;1433;49.976;8.342;2023-02-03T17:48:36;9.60;99.90
2851;DHT22;1433;49.976;8.342;2023-02-03T17:53:36;9.70;99.90
2851;DHT22;1433;49.976;8.342;2023-02-03T17:56:09;9.60;99.90
2851;DHT22;1433;49.976;8.342;2023-02-03T17:58:41;9.40;99.90
2851;DHT22;1433;49.976;8.342;2023-02-03T18:01:13;9.20;99.90
2851;DHT22;1433;49.976;8.342;2023-02-03T18:03:45;9.10;99.90
2851;DHT22;1433;49.976;8.342;2023-02-03T18:06:14;9.00;99.90
2851;DHT22;1433;49.976;8.342;2023-02-03T18:08:43;9.00;99.90
2851;DHT22;1433;49.976;8.342;2023-02-03T18:11:10;8.90;99.90
2851;DHT22;1433;49.976;8.342;2023-02-03T18:13:39;8.90;99.90
2851;DHT22;1433;49.976;8.342;2023-02-03T18:16:12;8.80;99.90
2851;DHT22;1433;49.976;8.342;2023-02-03T18:18:41;8.80;99.90
2851;DHT22;1433;49.976;8.342;2023-02-03T18:21:09;8.80;99.90
2851;DHT22;1433;49.976;8.342;2023-02-03T18:23:37;8.80;99.90
2851;DHT22;1433;49.976;8.342;2023-02-03T18:26:05;8.70;99.90
2851;DHT22;1433;49.976;8.342;2023-02-03T18:28:33;8.70;99.90
2851;DHT22;1433;49.976;8.342;2023-02-03T18:31:11;8.70;99.90
2851;DHT22;1433;49.976;8.342;2023-02-03T18:33:40;8.70;99.90
2851;DHT22;1433;49.976;8.342;2023-02-03T18:36:08;8.70;99.90
2851;DHT22;1433;49.976;8.342;2023-02-03T18:38:39;8.60;99.90
2851;DHT22;1433;49.976;8.342;2023-02-03T18:41:14;8.60;99.90
2851;DHT22;1433;49.976;8.342;2023-02-03T18:43:41;8.60;99.90
2851;DHT22;1433;49.976;8.342;2023-02-03T18:46:09;8.60;99.90
2851;DHT22;1433;49.976;8.342;2023-02-03T18:48:39;8.60;99.90
2851;DHT22;1433;49.976;8.342;2023-02-03T18:51:10;8.60;99.90
2851;DHT22;1433;49.976;8.342;2023-02-03T18:53:38;8.60;99.90
2851;DHT22;1433;49.976;8.342;2023-02-03T18:56:15;8.50;99.90
2851;DHT22;1433;49.976;8.342;2023-02-03T18:58:46;8.60;99.90